sensor_id;sensor_type;location;lat;lon;timestamp;P1;durP1;ratioP1;P2;durP2;ratioP2
22660;SDS011;11497;52.222;21.246;2023-01-09T00:01:23;72.15;;;32.10;;
22660;SDS011;11497;52.222;21.246;2023-01-09T00:03:56;71.70;;;31.23;;
22660;SDS011;11497;52.222;21.246;2023-01-09T00:06:24;70.05;;;30.88;;
22660;SDS011;11497;52.222;21.246;2023-01-09T00:08:52;66.78;;;30.23;;
22660;SDS011;11497;52.222;21.246;2023-01-09T00:11:20;73.47;;;32.33;;
22660;SDS011;11497;52.222;21.246;2023-01-09T00:13:48;67.78;;;30.48;;
22660;SDS011;11497;52.222;21.246;2023-01-09T00:16:16;73.22;;;33.15;;
22660;SDS011;11497;52.222;21.246;2023-01-09T00:18:45;67.43;;;29.00;;
22660;SDS011;11497;52.222;21.246;2023-01-09T00:21:13;70.32;;;29.10;;
22660;SDS011;11497;52.222;21.246;2023-01-09T00:23:41;71.78;;;31.63;;
22660;SDS011;11497;52.222;21.246;2023-01-09T00:26:10;66.70;;;30.50;;
22660;SDS011;11497;52.222;21.246;2023-01-09T00:28:39;65.97;;;30.85;;
22660;SDS011;11497;52.222;21.246;2023-01-09T00:31:07;63.65;;;28.33;;
22660;SDS011;11497;52.222;21.246;2023-01-09T00:33:43;67.88;;;31.58;;
22660;SDS011;11497;52.222;21.246;2023-01-09T00:36:32;71.78;;;30.15;;
22660;SDS011;11497;52.222;21.246;2023-01-09T00:39:00;69.00;;;30.98;;
22660;SDS011;11497;52.222;21.246;2023-01-09T00:41:36;65.68;;;29.58;;
22660;SDS011;11497;52.222;21.246;2023-01-09T00:44:16;67.00;;;29.95;;
22660;SDS011;11497;52.222;21.246;2023-01-09T00:46:49;71.65;;;32.65;;
22660;SDS011;11497;52.222;21.246;2023-01-09T00:49:21;67.97;;;30.90;;
22660;SDS011;11497;52.222;21.246;2023-01-09T00:51:49;66.90;;;29.85;;
22660;SDS011;11497;52.222;21.246;2023-01-09T00:54:17;68.05;;;29.73;;
22660;SDS011;11497;52.222;21.246;2023-01-09T00:56:46;66.70;;;31.90;;
22660;SDS011;11497;52.222;21.246;2023-01-09T00:59:14;63.55;;;30.80;;
22660;SDS011;11497;52.222;21.246;2023-01-09T01:01:42;65.43;;;31.08;;
22660;SDS011;11497;52.222;21.246;2023-01-09T01:04:10;63.80;;;28.73;;
22660;SDS011;11497;52.222;21.246;2023-01-09T01:06:56;62.80;;;30.15;;
22660;SDS011;11497;52.222;21.246;2023-01-09T01:09:47;65.15;;;31.08;;
22660;SDS011;11497;52.222;21.246;2023-01-09T01:12:15;66.22;;;33.75;;
22660;SDS011;11497;52.222;21.246;2023-01-09T01:14:43;67.07;;;31.98;;
22660;SDS011;11497;52.222;21.246;2023-01-09T01:17:11;63.13;;;28.05;;
22660;SDS011;11497;52.222;21.246;2023-01-09T01:19:38;62.38;;;31.10;;
22660;SDS011;11497;52.222;21.246;2023-01-09T01:22:06;60.03;;;30.23;;
22660;SDS011;11497;52.222;21.246;2023-01-09T01:24:34;65.97;;;32.70;;
22660;SDS011;11497;52.222;21.246;2023-01-09T01:27:02;64.90;;;28.90;;
22660;SDS011;11497;52.222;21.246;2023-01-09T01:29:30;60.75;;;30.95;;
22660;SDS011;11497;52.222;21.246;2023-01-09T01:31:58;62.55;;;29.85;;
22660;SDS011;11497;52.222;21.246;2023-01-09T01:34:26;64.85;;;31.13;;
22660;SDS011;11497;52.222;21.246;2023-01-09T01:36:55;62.60;;;28.33;;
22660;SDS011;11497;52.222;21.246;2023-01-09T01:39:23;62.85;;;30.30;;
22660;SDS011;11497;52.222;21.246;2023-01-09T01:41:51;60.35;;;29.90;;
22660;SDS011;11497;52.222;21.246;2023-01-09T01:47:40;55.90;;;27.85;;
22660;SDS011;11497;52.222;21.246;2023-01-09T01:53:08;56.85;;;27.33;;
22660;SDS011;11497;52.222;21.246;2023-01-09T01:55:39;48.97;;;22.88;;
22660;SDS011;11497;52.222;21.246;2023-01-09T01:58:13;55.13;;;26.30;;
22660;SDS011;11497;52.222;21.246;2023-01-09T02:00:42;61.78;;;29.23;;
22660;SDS011;11497;52.222;21.246;2023-01-09T02:03:14;58.22;;;27.77;;
22660;SDS011;11497;52.222;21.246;2023-01-09T02:05:45;62.65;;;28.40;;
22660;SDS011;11497;52.222;21.246;2023-01-09T02:08:13;56.35;;;29.40;;
22660;SDS011;11497;52.222;21.246;2023-01-09T02:10:41;57.05;;;26.40;;
22660;SDS011;11497;52.222;21.246;2023-01-09T02:13:10;55.15;;;28.52;;
22660;SDS011;11497;52.222;21.246;2023-01-09T02:21:35;53.70;;;26.85;;
22660;SDS011;11497;52.222;21.246;2023-01-09T02:29:30;51.20;;;26.20;;
22660;SDS011;11497;52.222;21.246;2023-01-09T02:37:59;58.03;;;27.70;;
22660;SDS011;11497;52.222;21.246;2023-01-09T02:40:41;50.15;;;24.63;;
22660;SDS011;11497;52.222;21.246;2023-01-09T02:43:17;53.83;;;25.13;;
22660;SDS011;11497;52.222;21.246;2023-01-09T02:45:46;51.50;;;25.70;;
22660;SDS011;11497;52.222;21.246;2023-01-09T02:48:14;52.50;;;23.45;;
22660;SDS011;11497;52.222;21.246;2023-01-09T02:50:47;50.60;;;25.13;;
22660;SDS011;11497;52.222;21.246;2023-01-09T02:53:37;52.42;;;25.63;;
22660;SDS011;11497;52.222;21.246;2023-01-09T02:59:23;56.00;;;25.42;;
22660;SDS011;11497;52.222;21.246;2023-01-09T03:04:45;55.63;;;26.30;;
22660;SDS011;11497;52.222;21.246;2023-01-09T03:07:39;48.20;;;25.52;;
22660;SDS011;11497;52.222;21.246;2023-01-09T03:10:18;54.72;;;26.90;;
22660;SDS011;11497;52.222;21.246;2023-01-09T03:12:58;51.35;;;26.20;;
22660;SDS011;11497;52.222;21.246;2023-01-09T03:15:29;53.40;;;26.17;;
22660;SDS011;11497;52.222;21.246;2023-01-09T03:18:00;49.17;;;23.70;;
22660;SDS011;11497;52.222;21.246;2023-01-09T03:20:31;49.08;;;25.27;;
22660;SDS011;11497;52.222;21.246;2023-01-09T03:23:01;50.13;;;24.73;;
22660;SDS011;11497;52.222;21.246;2023-01-09T03:25:30;51.38;;;25.05;;
22660;SDS011;11497;52.222;21.246;2023-01-09T03:27:59;49.60;;;25.35;;
22660;SDS011;11497;52.222;21.246;2023-01-09T03:30:29;47.50;;;25.02;;
22660;SDS011;11497;52.222;21.246;2023-01-09T03:32:58;47.28;;;23.92;;
22660;SDS011;11497;52.222;21.246;2023-01-09T03:35:26;48.15;;;24.55;;
22660;SDS011;11497;52.222;21.246;2023-01-09T03:37:54;52.13;;;25.80;;
22660;SDS011;11497;52.222;21.246;2023-01-09T03:40:22;52.50;;;25.60;;
22660;SDS011;11497;52.222;21.246;2023-01-09T03:42:50;47.80;;;25.92;;
22660;SDS011;11497;52.222;21.246;2023-01-09T03:45:17;51.25;;;25.20;;
22660;SDS011;11497;52.222;21.246;2023-01-09T03:47:45;52.00;;;25.08;;
22660;SDS011;11497;52.222;21.246;2023-01-09T03:50:13;49.60;;;24.50;;
22660;SDS011;11497;52.222;21.246;2023-01-09T03:52:41;50.08;;;24.90;;
22660;SDS011;11497;52.222;21.246;2023-01-09T03:55:09;50.03;;;24.13;;
22660;SDS011;11497;52.222;21.246;2023-01-09T03:57:37;51.15;;;26.17;;
22660;SDS011;11497;52.222;21.246;2023-01-09T04:00:05;48.00;;;25.08;;
22660;SDS011;11497;52.222;21.246;2023-01-09T04:02:43;48.92;;;24.25;;
22660;SDS011;11497;52.222;21.246;2023-01-09T04:05:11;48.53;;;22.88;;
22660;SDS011;11497;52.222;21.246;2023-01-09T04:07:39;49.67;;;25.02;;
22660;SDS011;11497;52.222;21.246;2023-01-09T04:10:07;45.45;;;23.70;;
22660;SDS011;11497;52.222;21.246;2023-01-09T04:12:37;45.38;;;23.90;;
22660;SDS011;11497;52.222;21.246;2023-01-09T04:15:05;47.63;;;21.95;;
22660;SDS011;11497;52.222;21.246;2023-01-09T04:17:33;48.55;;;22.90;;
22660;SDS011;11497;52.222;21.246;2023-01-09T04:20:01;48.00;;;23.20;;
22660;SDS011;11497;52.222;21.246;2023-01-09T04:22:29;48.38;;;23.65;;
22660;SDS011;11497;52.222;21.246;2023-01-09T04:24:57;49.25;;;24.80;;
22660;SDS011;11497;52.222;21.246;2023-01-09T04:27:25;48.25;;;22.70;;
22660;SDS011;11497;52.222;21.246;2023-01-09T04:29:53;49.50;;;24.27;;
22660;SDS011;11497;52.222;21.246;2023-01-09T04:32:21;48.10;;;23.00;;
22660;SDS011;11497;52.222;21.246;2023-01-09T04:34:48;47.67;;;24.17;;
22660;SDS011;11497;52.222;21.246;2023-01-09T04:37:16;46.97;;;22.73;;
22660;SDS011;11497;52.222;21.246;2023-01-09T04:39:44;45.25;;;22.45;;
22660;SDS011;11497;52.222;21.246;2023-01-09T04:42:12;44.65;;;21.73;;
22660;SDS011;11497;52.222;21.246;2023-01-09T04:44:40;45.80;;;23.27;;
22660;SDS011;11497;52.222;21.246;2023-01-09T04:47:08;49.00;;;22.67;;
22660;SDS011;11497;52.222;21.246;2023-01-09T04:49:35;51.53;;;23.23;;
22660;SDS011;11497;52.222;21.246;2023-01-09T04:52:03;50.20;;;23.73;;
22660;SDS011;11497;52.222;21.246;2023-01-09T04:54:31;51.72;;;26.88;;
22660;SDS011;11497;52.222;21.246;2023-01-09T04:57:00;52.58;;;26.90;;
22660;SDS011;11497;52.222;21.246;2023-01-09T04:59:27;46.85;;;24.20;;
22660;SDS011;11497;52.222;21.246;2023-01-09T05:01:55;43.22;;;23.05;;
22660;SDS011;11497;52.222;21.246;2023-01-09T05:04:25;46.10;;;23.70;;
22660;SDS011;11497;52.222;21.246;2023-01-09T05:06:53;47.10;;;24.35;;
22660;SDS011;11497;52.222;21.246;2023-01-09T05:09:20;48.08;;;23.65;;
22660;SDS011;11497;52.222;21.246;2023-01-09T05:11:48;46.03;;;23.23;;
22660;SDS011;11497;52.222;21.246;2023-01-09T05:14:16;43.25;;;22.67;;
22660;SDS011;11497;52.222;21.246;2023-01-09T05:16:44;47.00;;;22.27;;
22660;SDS011;11497;52.222;21.246;2023-01-09T05:19:12;44.63;;;21.70;;
22660;SDS011;11497;52.222;21.246;2023-01-09T05:21:40;46.90;;;23.15;;
22660;SDS011;11497;52.222;21.246;2023-01-09T05:24:08;43.58;;;22.35;;
22660;SDS011;11497;52.222;21.246;2023-01-09T05:26:36;56.65;;;24.15;;
22660;SDS011;11497;52.222;21.246;2023-01-09T05:29:03;43.45;;;22.92;;
22660;SDS011;11497;52.222;21.246;2023-01-09T05:31:31;43.25;;;23.05;;
22660;SDS011;11497;52.222;21.246;2023-01-09T05:33:59;42.90;;;21.83;;
22660;SDS011;11497;52.222;21.246;2023-01-09T05:36:27;47.95;;;23.67;;
22660;SDS011;11497;52.222;21.246;2023-01-09T05:38:55;44.58;;;22.48;;
22660;SDS011;11497;52.222;21.246;2023-01-09T05:41:28;41.15;;;22.33;;
22660;SDS011;11497;52.222;21.246;2023-01-09T05:43:56;42.00;;;20.73;;
22660;SDS011;11497;52.222;21.246;2023-01-09T05:46:24;42.58;;;21.35;;
22660;SDS011;11497;52.222;21.246;2023-01-09T05:48:51;44.13;;;22.00;;
22660;SDS011;11497;52.222;21.246;2023-01-09T05:51:19;43.08;;;21.70;;
22660;SDS011;11497;52.222;21.246;2023-01-09T05:53:47;41.03;;;21.85;;
22660;SDS011;11497;52.222;21.246;2023-01-09T05:56:16;43.28;;;21.88;;
22660;SDS011;11497;52.222;21.246;2023-01-09T05:58:43;42.15;;;22.45;;
22660;SDS011;11497;52.222;21.246;2023-01-09T06:01:11;41.35;;;22.02;;
22660;SDS011;11497;52.222;21.246;2023-01-09T06:03:39;40.88;;;21.95;;
22660;SDS011;11497;52.222;21.246;2023-01-09T06:06:07;40.92;;;21.67;;
22660;SDS011;11497;52.222;21.246;2023-01-09T06:08:35;42.78;;;21.60;;
22660;SDS011;11497;52.222;21.246;2023-01-09T06:11:02;38.80;;;19.35;;
22660;SDS011;11497;52.222;21.246;2023-01-09T06:13:30;44.58;;;23.60;;
22660;SDS011;11497;52.222;21.246;2023-01-09T06:15:58;43.63;;;21.77;;
22660;SDS011;11497;52.222;21.246;2023-01-09T06:18:26;47.67;;;23.55;;
22660;SDS011;11497;52.222;21.246;2023-01-09T06:20:54;43.78;;;22.58;;
22660;SDS011;11497;52.222;21.246;2023-01-09T06:23:21;44.03;;;23.08;;
22660;SDS011;11497;52.222;21.246;2023-01-09T06:25:49;43.67;;;23.13;;
22660;SDS011;11497;52.222;21.246;2023-01-09T06:28:17;47.70;;;24.20;;
22660;SDS011;11497;52.222;21.246;2023-01-09T06:30:48;48.20;;;24.17;;
22660;SDS011;11497;52.222;21.246;2023-01-09T06:33:18;51.78;;;23.65;;
22660;SDS011;11497;52.222;21.246;2023-01-09T06:35:46;44.42;;;21.77;;
22660;SDS011;11497;52.222;21.246;2023-01-09T06:38:13;43.78;;;22.55;;
22660;SDS011;11497;52.222;21.246;2023-01-09T06:40:41;47.17;;;22.92;;
22660;SDS011;11497;52.222;21.246;2023-01-09T06:43:09;47.67;;;24.27;;
22660;SDS011;11497;52.222;21.246;2023-01-09T06:45:37;50.60;;;25.50;;
22660;SDS011;11497;52.222;21.246;2023-01-09T06:48:05;55.10;;;25.90;;
22660;SDS011;11497;52.222;21.246;2023-01-09T06:50:33;55.00;;;26.38;;
22660;SDS011;11497;52.222;21.246;2023-01-09T06:53:01;51.00;;;24.52;;
22660;SDS011;11497;52.222;21.246;2023-01-09T06:55:29;56.90;;;26.05;;
22660;SDS011;11497;52.222;21.246;2023-01-09T06:57:57;57.17;;;25.67;;
22660;SDS011;11497;52.222;21.246;2023-01-09T07:00:25;51.90;;;26.13;;
22660;SDS011;11497;52.222;21.246;2023-01-09T07:02:52;51.67;;;25.85;;
22660;SDS011;11497;52.222;21.246;2023-01-09T07:05:21;49.42;;;25.73;;
22660;SDS011;11497;52.222;21.246;2023-01-09T07:07:48;51.33;;;25.33;;
22660;SDS011;11497;52.222;21.246;2023-01-09T07:10:17;49.00;;;23.10;;
22660;SDS011;11497;52.222;21.246;2023-01-09T07:12:45;48.10;;;24.33;;
22660;SDS011;11497;52.222;21.246;2023-01-09T07:15:13;45.20;;;23.17;;
22660;SDS011;11497;52.222;21.246;2023-01-09T07:17:40;46.78;;;23.90;;
22660;SDS011;11497;52.222;21.246;2023-01-09T07:20:08;40.65;;;21.80;;
22660;SDS011;11497;52.222;21.246;2023-01-09T07:22:36;39.58;;;21.25;;
22660;SDS011;11497;52.222;21.246;2023-01-09T07:25:05;42.63;;;22.77;;
22660;SDS011;11497;52.222;21.246;2023-01-09T07:27:32;43.63;;;22.27;;
22660;SDS011;11497;52.222;21.246;2023-01-09T07:30:01;38.92;;;21.48;;
22660;SDS011;11497;52.222;21.246;2023-01-09T07:32:29;38.17;;;21.23;;
22660;SDS011;11497;52.222;21.246;2023-01-09T07:34:58;40.85;;;21.15;;
22660;SDS011;11497;52.222;21.246;2023-01-09T07:37:26;34.47;;;19.15;;
22660;SDS011;11497;52.222;21.246;2023-01-09T07:39:53;42.72;;;22.55;;
22660;SDS011;11497;52.222;21.246;2023-01-09T07:42:21;44.45;;;23.50;;
22660;SDS011;11497;52.222;21.246;2023-01-09T07:44:49;40.20;;;21.25;;
22660;SDS011;11497;52.222;21.246;2023-01-09T07:47:17;44.13;;;23.80;;
22660;SDS011;11497;52.222;21.246;2023-01-09T07:49:45;41.10;;;21.17;;
22660;SDS011;11497;52.222;21.246;2023-01-09T07:52:12;44.35;;;23.48;;
22660;SDS011;11497;52.222;21.246;2023-01-09T07:54:40;38.85;;;21.83;;
22660;SDS011;11497;52.222;21.246;2023-01-09T07:57:08;44.40;;;23.23;;
22660;SDS011;11497;52.222;21.246;2023-01-09T07:59:36;44.83;;;23.52;;
22660;SDS011;11497;52.222;21.246;2023-01-09T08:02:04;43.42;;;23.27;;
22660;SDS011;11497;52.222;21.246;2023-01-09T08:04:33;41.92;;;24.17;;
22660;SDS011;11497;52.222;21.246;2023-01-09T08:07:00;43.10;;;21.75;;
22660;SDS011;11497;52.222;21.246;2023-01-09T08:09:29;40.97;;;22.20;;
22660;SDS011;11497;52.222;21.246;2023-01-09T08:11:56;40.63;;;21.52;;
22660;SDS011;11497;52.222;21.246;2023-01-09T08:14:24;32.83;;;18.50;;
22660;SDS011;11497;52.222;21.246;2023-01-09T08:16:52;38.22;;;21.42;;
22660;SDS011;11497;52.222;21.246;2023-01-09T08:19:20;35.95;;;19.27;;
22660;SDS011;11497;52.222;21.246;2023-01-09T08:21:48;34.22;;;20.13;;
22660;SDS011;11497;52.222;21.246;2023-01-09T08:24:16;35.80;;;20.02;;
22660;SDS011;11497;52.222;21.246;2023-01-09T08:26:44;33.33;;;18.67;;
22660;SDS011;11497;52.222;21.246;2023-01-09T08:29:12;34.92;;;19.88;;
22660;SDS011;11497;52.222;21.246;2023-01-09T08:31:40;33.42;;;18.90;;
22660;SDS011;11497;52.222;21.246;2023-01-09T08:34:08;35.80;;;20.58;;
22660;SDS011;11497;52.222;21.246;2023-01-09T08:36:35;33.88;;;18.08;;
22660;SDS011;11497;52.222;21.246;2023-01-09T08:39:03;33.90;;;18.35;;
22660;SDS011;11497;52.222;21.246;2023-01-09T08:41:31;34.92;;;19.83;;
22660;SDS011;11497;52.222;21.246;2023-01-09T08:44:18;32.80;;;18.85;;
22660;SDS011;11497;52.222;21.246;2023-01-09T08:47:04;31.65;;;18.38;;
22660;SDS011;11497;52.222;21.246;2023-01-09T08:49:36;30.75;;;18.67;;
22660;SDS011;11497;52.222;21.246;2023-01-09T08:52:05;26.52;;;16.10;;
22660;SDS011;11497;52.222;21.246;2023-01-09T08:54:33;31.05;;;18.45;;
22660;SDS011;11497;52.222;21.246;2023-01-09T08:57:05;36.25;;;18.48;;
22660;SDS011;11497;52.222;21.246;2023-01-09T08:59:33;33.33;;;17.85;;
22660;SDS011;11497;52.222;21.246;2023-01-09T09:02:02;30.25;;;18.52;;
22660;SDS011;11497;52.222;21.246;2023-01-09T09:04:30;36.28;;;18.20;;
22660;SDS011;11497;52.222;21.246;2023-01-09T09:06:58;34.70;;;19.63;;
22660;SDS011;11497;52.222;21.246;2023-01-09T09:09:25;37.10;;;20.20;;
22660;SDS011;11497;52.222;21.246;2023-01-09T09:11:53;30.92;;;17.95;;
22660;SDS011;11497;52.222;21.246;2023-01-09T09:14:21;34.97;;;18.85;;
22660;SDS011;11497;52.222;21.246;2023-01-09T09:17:08;31.77;;;16.55;;
22660;SDS011;11497;52.222;21.246;2023-01-09T09:19:36;30.80;;;17.95;;
22660;SDS011;11497;52.222;21.246;2023-01-09T09:22:05;34.63;;;19.40;;
22660;SDS011;11497;52.222;21.246;2023-01-09T09:24:33;31.60;;;18.02;;
22660;SDS011;11497;52.222;21.246;2023-01-09T09:27:00;33.15;;;18.60;;
22660;SDS011;11497;52.222;21.246;2023-01-09T09:29:29;35.50;;;18.52;;
22660;SDS011;11497;52.222;21.246;2023-01-09T09:31:56;33.38;;;17.90;;
22660;SDS011;11497;52.222;21.246;2023-01-09T09:34:26;33.33;;;18.77;;
22660;SDS011;11497;52.222;21.246;2023-01-09T09:36:54;37.08;;;19.90;;
22660;SDS011;11497;52.222;21.246;2023-01-09T09:39:22;34.97;;;18.95;;
22660;SDS011;11497;52.222;21.246;2023-01-09T09:47:35;33.10;;;18.50;;
22660;SDS011;11497;52.222;21.246;2023-01-09T09:53:30;33.13;;;19.15;;
22660;SDS011;11497;52.222;21.246;2023-01-09T09:55:35;34.42;;;20.20;;
22660;SDS011;11497;52.222;21.246;2023-01-09T09:58:15;33.40;;;18.67;;
22660;SDS011;11497;52.222;21.246;2023-01-09T10:00:57;34.63;;;19.08;;
22660;SDS011;11497;52.222;21.246;2023-01-09T10:03:30;28.92;;;16.98;;
22660;SDS011;11497;52.222;21.246;2023-01-09T10:06:31;34.65;;;19.90;;
22660;SDS011;11497;52.222;21.246;2023-01-09T10:12:25;33.72;;;18.80;;
22660;SDS011;11497;52.222;21.246;2023-01-09T10:14:55;28.92;;;17.92;;
22660;SDS011;11497;52.222;21.246;2023-01-09T10:23:31;32.50;;;19.60;;
22660;SDS011;11497;52.222;21.246;2023-01-09T10:27:11;33.15;;;18.55;;
22660;SDS011;11497;52.222;21.246;2023-01-09T10:30:16;30.63;;;18.13;;
22660;SDS011;11497;52.222;21.246;2023-01-09T10:35:25;32.30;;;18.75;;
22660;SDS011;11497;52.222;21.246;2023-01-09T10:38:15;35.58;;;19.23;;
22660;SDS011;11497;52.222;21.246;2023-01-09T10:41:01;33.03;;;19.50;;
22660;SDS011;11497;52.222;21.246;2023-01-09T10:44:01;35.28;;;19.58;;
22660;SDS011;11497;52.222;21.246;2023-01-09T10:49:20;37.78;;;20.63;;
22660;SDS011;11497;52.222;21.246;2023-01-09T10:51:51;39.28;;;20.48;;
22660;SDS011;11497;52.222;21.246;2023-01-09T10:54:30;38.38;;;21.42;;
22660;SDS011;11497;52.222;21.246;2023-01-09T10:57:01;36.60;;;21.77;;
22660;SDS011;11497;52.222;21.246;2023-01-09T10:59:40;34.90;;;20.75;;
22660;SDS011;11497;52.222;21.246;2023-01-09T11:04:59;44.00;;;22.77;;
22660;SDS011;11497;52.222;21.246;2023-01-09T11:07:28;46.05;;;23.88;;
22660;SDS011;11497;52.222;21.246;2023-01-09T11:10:06;39.78;;;22.70;;
22660;SDS011;11497;52.222;21.246;2023-01-09T11:12:37;44.13;;;23.75;;
22660;SDS011;11497;52.222;21.246;2023-01-09T11:17:45;41.53;;;23.92;;
22660;SDS011;11497;52.222;21.246;2023-01-09T11:20:34;51.10;;;26.63;;
22660;SDS011;11497;52.222;21.246;2023-01-09T11:23:02;44.58;;;25.42;;
22660;SDS011;11497;52.222;21.246;2023-01-09T11:25:30;47.03;;;26.00;;
22660;SDS011;11497;52.222;21.246;2023-01-09T11:30:29;41.50;;;24.65;;
22660;SDS011;11497;52.222;21.246;2023-01-09T11:32:59;42.22;;;24.23;;
22660;SDS011;11497;52.222;21.246;2023-01-09T11:35:45;43.53;;;24.05;;
22660;SDS011;11497;52.222;21.246;2023-01-09T11:38:21;42.00;;;24.67;;
22660;SDS011;11497;52.222;21.246;2023-01-09T11:40:59;45.13;;;24.00;;
22660;SDS011;11497;52.222;21.246;2023-01-09T11:43:38;41.58;;;24.00;;
22660;SDS011;11497;52.222;21.246;2023-01-09T11:46:10;43.00;;;24.83;;
22660;SDS011;11497;52.222;21.246;2023-01-09T11:52:04;43.63;;;24.25;;
22660;SDS011;11497;52.222;21.246;2023-01-09T11:54:48;47.78;;;25.55;;
22660;SDS011;11497;52.222;21.246;2023-01-09T11:57:25;45.15;;;24.98;;
22660;SDS011;11497;52.222;21.246;2023-01-09T11:59:54;43.03;;;23.88;;
22660;SDS011;11497;52.222;21.246;2023-01-09T12:08:19;41.78;;;23.75;;
22660;SDS011;11497;52.222;21.246;2023-01-09T12:19:43;43.78;;;25.95;;
22660;SDS011;11497;52.222;21.246;2023-01-09T12:22:32;44.80;;;27.88;;
22660;SDS011;11497;52.222;21.246;2023-01-09T12:33:41;47.28;;;28.05;;
22660;SDS011;11497;52.222;21.246;2023-01-09T12:36:16;55.25;;;30.55;;
22660;SDS011;11497;52.222;21.246;2023-01-09T12:38:54;54.53;;;29.95;;
22660;SDS011;11497;52.222;21.246;2023-01-09T12:44:44;54.45;;;31.42;;
22660;SDS011;11497;52.222;21.246;2023-01-09T12:55:33;45.50;;;27.77;;
22660;SDS011;11497;52.222;21.246;2023-01-09T12:58:25;53.70;;;30.17;;
22660;SDS011;11497;52.222;21.246;2023-01-09T13:01:38;55.97;;;30.73;;
22660;SDS011;11497;52.222;21.246;2023-01-09T13:09:28;68.93;;;35.15;;
22660;SDS011;11497;52.222;21.246;2023-01-09T13:12:15;64.15;;;35.25;;
22660;SDS011;11497;52.222;21.246;2023-01-09T13:17:29;50.72;;;31.42;;
22660;SDS011;11497;52.222;21.246;2023-01-09T13:19:57;49.70;;;29.15;;
22660;SDS011;11497;52.222;21.246;2023-01-09T13:22:26;53.28;;;29.88;;
22660;SDS011;11497;52.222;21.246;2023-01-09T13:27:48;44.13;;;27.02;;
22660;SDS011;11497;52.222;21.246;2023-01-09T13:30:46;53.00;;;29.25;;
22660;SDS011;11497;52.222;21.246;2023-01-09T13:35:50;47.28;;;27.45;;
22660;SDS011;11497;52.222;21.246;2023-01-09T13:38:20;48.13;;;29.75;;
22660;SDS011;11497;52.222;21.246;2023-01-09T13:41:01;53.85;;;29.67;;
22660;SDS011;11497;52.222;21.246;2023-01-09T13:46:53;52.65;;;29.65;;
22660;SDS011;11497;52.222;21.246;2023-01-09T13:49:28;53.75;;;30.38;;
22660;SDS011;11497;52.222;21.246;2023-01-09T13:54:59;46.72;;;25.88;;
22660;SDS011;11497;52.222;21.246;2023-01-09T13:57:33;48.58;;;30.02;;
22660;SDS011;11497;52.222;21.246;2023-01-09T14:07:39;52.05;;;30.40;;
22660;SDS011;11497;52.222;21.246;2023-01-09T14:10:24;58.55;;;31.63;;
22660;SDS011;11497;52.222;21.246;2023-01-09T14:13:00;58.85;;;32.00;;
22660;SDS011;11497;52.222;21.246;2023-01-09T14:15:39;54.75;;;32.28;;
22660;SDS011;11497;52.222;21.246;2023-01-09T14:23:54;53.13;;;30.65;;
22660;SDS011;11497;52.222;21.246;2023-01-09T14:26:42;60.70;;;31.08;;
22660;SDS011;11497;52.222;21.246;2023-01-09T14:29:45;55.60;;;28.80;;
22660;SDS011;11497;52.222;21.246;2023-01-09T14:34:52;54.72;;;30.35;;
22660;SDS011;11497;52.222;21.246;2023-01-09T14:37:34;52.97;;;31.20;;
22660;SDS011;11497;52.222;21.246;2023-01-09T14:40:06;60.35;;;34.17;;
22660;SDS011;11497;52.222;21.246;2023-01-09T14:42:45;53.03;;;29.15;;
22660;SDS011;11497;52.222;21.246;2023-01-09T14:45:18;49.42;;;28.60;;
22660;SDS011;11497;52.222;21.246;2023-01-09T14:47:54;49.72;;;25.33;;
22660;SDS011;11497;52.222;21.246;2023-01-09T14:50:38;50.83;;;27.65;;
22660;SDS011;11497;52.222;21.246;2023-01-09T15:03:45;53.42;;;27.98;;
22660;SDS011;11497;52.222;21.246;2023-01-09T15:06:20;50.75;;;28.15;;
22660;SDS011;11497;52.222;21.246;2023-01-09T15:09:02;50.92;;;26.92;;
22660;SDS011;11497;52.222;21.246;2023-01-09T15:11:34;48.63;;;26.92;;
22660;SDS011;11497;52.222;21.246;2023-01-09T15:14:05;55.33;;;28.83;;
22660;SDS011;11497;52.222;21.246;2023-01-09T15:16:39;42.22;;;24.95;;
22660;SDS011;11497;52.222;21.246;2023-01-09T15:19:11;45.85;;;27.60;;
22660;SDS011;11497;52.222;21.246;2023-01-09T15:21:45;45.42;;;24.58;;
22660;SDS011;11497;52.222;21.246;2023-01-09T15:24:31;40.97;;;24.08;;
22660;SDS011;11497;52.222;21.246;2023-01-09T15:27:04;43.78;;;26.67;;
22660;SDS011;11497;52.222;21.246;2023-01-09T15:29:38;42.30;;;24.40;;
22660;SDS011;11497;52.222;21.246;2023-01-09T15:32:17;42.88;;;25.45;;
22660;SDS011;11497;52.222;21.246;2023-01-09T15:34:50;44.00;;;25.02;;
22660;SDS011;11497;52.222;21.246;2023-01-09T15:39:56;44.15;;;24.08;;
22660;SDS011;11497;52.222;21.246;2023-01-09T15:42:28;40.35;;;25.02;;
22660;SDS011;11497;52.222;21.246;2023-01-09T15:45:28;39.90;;;23.52;;
22660;SDS011;11497;52.222;21.246;2023-01-09T15:50:46;35.88;;;21.23;;
22660;SDS011;11497;52.222;21.246;2023-01-09T15:53:17;39.05;;;24.40;;
22660;SDS011;11497;52.222;21.246;2023-01-09T15:58:46;40.00;;;24.50;;
22660;SDS011;11497;52.222;21.246;2023-01-09T16:03:43;36.00;;;23.17;;
22660;SDS011;11497;52.222;21.246;2023-01-09T16:06:25;37.10;;;23.15;;
22660;SDS011;11497;52.222;21.246;2023-01-09T16:08:54;38.63;;;24.33;;
22660;SDS011;11497;52.222;21.246;2023-01-09T16:11:26;33.90;;;21.80;;
22660;SDS011;11497;52.222;21.246;2023-01-09T16:16:42;39.03;;;24.60;;
22660;SDS011;11497;52.222;21.246;2023-01-09T16:22:26;38.42;;;22.88;;
22660;SDS011;11497;52.222;21.246;2023-01-09T16:24:58;38.53;;;23.48;;
22660;SDS011;11497;52.222;21.246;2023-01-09T16:27:29;39.17;;;23.23;;
22660;SDS011;11497;52.222;21.246;2023-01-09T16:29:59;37.63;;;21.17;;
22660;SDS011;11497;52.222;21.246;2023-01-09T16:35:01;38.13;;;22.45;;
22660;SDS011;11497;52.222;21.246;2023-01-09T16:37:32;37.22;;;23.48;;
22660;SDS011;11497;52.222;21.246;2023-01-09T16:42:38;38.15;;;23.15;;
22660;SDS011;11497;52.222;21.246;2023-01-09T16:45:26;35.25;;;22.35;;
22660;SDS011;11497;52.222;21.246;2023-01-09T16:47:54;40.25;;;23.33;;
22660;SDS011;11497;52.222;21.246;2023-01-09T16:50:23;36.60;;;23.48;;
22660;SDS011;11497;52.222;21.246;2023-01-09T16:52:52;38.47;;;23.52;;
22660;SDS011;11497;52.222;21.246;2023-01-09T16:55:21;38.28;;;23.17;;
22660;SDS011;11497;52.222;21.246;2023-01-09T16:57:49;39.05;;;22.52;;
22660;SDS011;11497;52.222;21.246;2023-01-09T17:00:17;35.90;;;22.52;;
22660;SDS011;11497;52.222;21.246;2023-01-09T17:02:47;38.05;;;22.45;;
22660;SDS011;11497;52.222;21.246;2023-01-09T17:05:14;43.72;;;24.42;;
22660;SDS011;11497;52.222;21.246;2023-01-09T17:07:42;36.00;;;21.63;;
22660;SDS011;11497;52.222;21.246;2023-01-09T17:10:20;40.13;;;24.00;;
22660;SDS011;11497;52.222;21.246;2023-01-09T17:12:48;38.90;;;24.35;;
22660;SDS011;11497;52.222;21.246;2023-01-09T17:15:16;40.38;;;24.38;;
22660;SDS011;11497;52.222;21.246;2023-01-09T17:17:44;35.22;;;22.98;;
22660;SDS011;11497;52.222;21.246;2023-01-09T17:20:12;36.20;;;22.80;;
22660;SDS011;11497;52.222;21.246;2023-01-09T17:22:45;39.35;;;24.65;;